This is the latest recevied weather packets stored in our database for station/object WX1NWA. If no packets are shown the sender has not sent any weather packets the latest 10 day(s).
| Time | Temp. | Humidity | Pressure | Rain* | Wind** | Luminosity | Snow |
|---|---|---|---|---|---|---|---|
| 1777752259 | 17.78° C | 37% | 1021.6 hPa | 0 mm | - | 110 W/m² | - |
| 1777751957 | 18.89° C | 38% | 1021.4 hPa | 0 mm | - | 635 W/m² | - |
| 1777751654 | 18.33° C | 40% | 1021.7 hPa | 0 mm | - | 659 W/m² | - |
| 1777751350 | 18.89° C | 38% | 1021.7 hPa | 0 mm | - | 679 W/m² | - |
| 1777751047 | 18.33° C | 41% | 1021.7 hPa | 0 mm | - | 699 W/m² | - |
| 1777750743 | 17.78° C | 39% | 1021.7 hPa | 0 mm | - | 709 W/m² | - |
| 1777750440 | 17.78° C | 40% | 1021.8 hPa | 0 mm | - | 699 W/m² | - |
| 1777750135 | 18.89° C | 38% | 1021.7 hPa | 0 mm | - | 683 W/m² | - |
| 1777749833 | 18.33° C | 40% | 1021.6 hPa | 0 mm | - | 749 W/m² | - |
| 1777749530 | 18.33° C | 42% | 1021.6 hPa | 0 mm | - | 769 W/m² | - |
| 1777749228 | 17.22° C | 43% | 1021.9 hPa | 0 mm | - | 748 W/m² | - |
| 1777748925 | 16.67° C | 42% | 1021.8 hPa | 0 mm | - | 752 W/m² | - |
| 1777748622 | 16.11° C | 45% | 1021.9 hPa | 0 mm | - | 193 W/m² | - |
| 1777748318 | 16.67° C | 44% | 1022 hPa | 0 mm | - | 172 W/m² | - |
| 1777748014 | 18.33° C | 41% | 1022 hPa | 0 mm | - | 203 W/m² | - |
| 1777747711 | 17.78° C | 41% | 1022 hPa | 0 mm | - | 750 W/m² | - |
| 1777747406 | 16.67° C | 46% | 1021.8 hPa | 0 mm | - | 762 W/m² | - |
| 1777747103 | 16.11° C | 44% | 1021.7 hPa | 0 mm | - | 268 W/m² | - |
| 1777746799 | 16.67° C | 47% | 1021.9 hPa | 0 mm | - | 242 W/m² | - |
| 1777746494 | 18.33° C | 41% | 1022 hPa | 0 mm | - | 239 W/m² | - |
| 1777746190 | 17.78° C | 44% | 1022 hPa | 0 mm | - | 824 W/m² | - |
| 1777745887 | 17.22° C | 45% | 1022 hPa | 0 mm | - | 764 W/m² | - |
| 1777745586 | 17.22° C | 44% | 1021.7 hPa | 0 mm | - | 134 W/m² | - |
| 1777745283 | 17.22° C | 42% | 1022.3 hPa | 0 mm | - | 730 W/m² | - |
| 1777744980 | 16.67° C | 44% | 1022.4 hPa | 0 mm | - | 725 W/m² | - |
* Rain latest hour (hover to see other rain measurements)
** Current wind speed in m/s (hover to see current wind gust speed)